createdAt,value
2022-09-03T00:02:47.464Z,17.13
2022-09-03T00:05:42.604Z,19.57
2022-09-03T00:08:46.926Z,15.93
2022-09-03T00:11:39.778Z,17.37
2022-09-03T00:14:15.128Z,17.63
2022-09-03T00:16:56.325Z,17.23
2022-09-03T00:19:42.458Z,17.10
2022-09-03T00:22:23.096Z,17.27
2022-09-03T00:24:53.159Z,18.70
2022-09-03T00:27:26.236Z,17.90
2022-09-03T00:29:59.319Z,18.07
2022-09-03T00:33:07.821Z,17.80
2022-09-03T00:35:50.572Z,17.40
2022-09-03T00:38:19.115Z,17.20
2022-09-03T00:41:18.284Z,20.13
2022-09-03T00:44:06.797Z,16.67
2022-09-03T00:46:43.508Z,15.93
2022-09-03T00:49:41.103Z,16.80
2022-09-03T00:52:33.680Z,16.57
2022-09-03T00:55:23.743Z,15.70
2022-09-03T00:58:10.302Z,15.07
2022-09-03T01:00:44.389Z,14.27
2022-09-03T01:03:17.641Z,13.67
2022-09-03T01:06:19.487Z,13.80
2022-09-03T01:09:12.914Z,15.70
2022-09-03T01:11:56.227Z,14.00
2022-09-03T01:14:36.835Z,12.60
2022-09-03T01:17:29.934Z,15.57
2022-09-03T01:20:10.525Z,12.97
2022-09-03T01:23:21.379Z,12.03
2022-09-03T01:25:56.623Z,10.90
2022-09-03T01:28:25.189Z,14.23
2022-09-03T01:31:14.219Z,12.13
2022-09-03T01:33:57.528Z,10.47
2022-09-03T01:36:35.804Z,9.73
2022-09-03T01:39:09.015Z,10.23
2022-09-03T01:42:20.454Z,9.27
2022-09-03T01:45:15.010Z,12.33
2022-09-03T01:48:23.206Z,8.63
2022-09-03T01:51:15.046Z,7.43
2022-09-03T01:54:03.295Z,8.50
2022-09-03T01:57:12.792Z,10.73
2022-09-03T02:00:23.526Z,8.07
2022-09-03T02:02:53.888Z,6.87
2022-09-03T02:05:27.801Z,9.67
2022-09-03T02:08:03.694Z,7.70
2022-09-03T02:10:55.704Z,7.80
2022-09-03T02:13:32.663Z,8.50
2022-09-03T02:16:18.119Z,9.90
2022-09-03T02:18:51.477Z,8.63
2022-09-03T02:21:22.444Z,6.50
2022-09-03T02:23:51.324Z,9.07
2022-09-03T02:26:24.920Z,7.60
2022-09-03T02:28:56.286Z,6.57
2022-09-03T02:31:24.900Z,9.17
2022-09-03T02:33:53.535Z,8.63
2022-09-03T02:36:28.712Z,8.10
2022-09-03T02:38:57.171Z,8.60
2022-09-03T02:41:28.197Z,6.93
2022-09-03T02:44:32.742Z,12.43
2022-09-03T02:47:03.972Z,7.00
2022-09-03T02:49:33.646Z,8.63
2022-09-03T02:52:10.182Z,9.30
2022-09-03T02:54:40.755Z,7.77
2022-09-03T02:57:10.689Z,9.73
2022-09-03T02:59:40.592Z,6.30
2022-09-03T03:02:09.633Z,6.50
2022-09-03T03:04:38.616Z,7.33
2022-09-03T03:07:08.692Z,7.60
2022-09-03T03:09:37.103Z,6.37
2022-09-03T03:12:06.124Z,6.77
2022-09-03T03:14:34.512Z,6.17
2022-09-03T03:17:03.237Z,5.87
2022-09-03T03:19:31.780Z,7.17
2022-09-03T03:22:00.288Z,6.40
2022-09-03T03:24:28.732Z,7.60
2022-09-03T03:27:01.222Z,15.03
2022-09-03T03:29:29.817Z,13.87
2022-09-03T03:31:58.906Z,6.90
2022-09-03T03:34:27.248Z,5.63
2022-09-03T03:36:56.145Z,5.73
2022-09-03T03:39:24.579Z,5.50
2022-09-03T03:41:53.454Z,7.30
2022-09-03T03:44:21.990Z,4.80
2022-09-03T03:46:50.453Z,4.67
2022-09-03T03:49:19.545Z,6.30
2022-09-03T03:51:47.957Z,4.47
2022-09-03T03:54:17.714Z,6.10
2022-09-03T03:56:46.861Z,6.60
2022-09-03T03:59:24.063Z,4.83
2022-09-03T04:01:52.452Z,5.77
2022-09-03T04:04:20.871Z,4.20
2022-09-03T04:06:49.365Z,5.90
2022-09-03T04:09:17.799Z,7.73
2022-09-03T04:11:46.277Z,4.80
2022-09-03T04:14:14.752Z,6.10
2022-09-03T04:16:43.638Z,8.00
2022-09-03T04:19:12.009Z,6.50
2022-09-03T04:21:40.917Z,7.37
2022-09-03T04:24:09.364Z,5.93
2022-09-03T04:26:38.272Z,5.20
2022-09-03T04:29:09.063Z,4.53
2022-09-03T04:31:38.905Z,6.70
2022-09-03T04:34:08.499Z,5.73
2022-09-03T04:36:38.339Z,4.17
2022-09-03T04:39:06.881Z,5.93
2022-09-03T04:41:35.251Z,6.80
2022-09-03T04:44:03.892Z,5.83
2022-09-03T04:46:35.231Z,6.07
2022-09-03T04:49:04.295Z,5.90
2022-09-03T04:51:32.988Z,6.80
2022-09-03T04:54:03.141Z,7.10
2022-09-03T04:56:36.295Z,3.50
2022-09-03T04:59:07.371Z,4.23
2022-09-03T05:01:38.039Z,4.90
2022-09-03T05:04:08.151Z,4.97
2022-09-03T05:06:37.782Z,9.60
2022-09-03T05:09:06.506Z,3.80
2022-09-03T05:11:34.895Z,3.90
2022-09-03T05:14:03.345Z,7.97
2022-09-03T05:16:31.850Z,6.27
2022-09-03T05:19:01.725Z,5.30
2022-09-03T05:21:30.823Z,4.20
2022-09-03T05:24:02.744Z,4.40
2022-09-03T05:26:33.939Z,2.87
2022-09-03T05:29:03.948Z,4.07
2022-09-03T05:31:32.710Z,3.80
2022-09-03T05:34:04.384Z,4.30
2022-09-03T05:36:39.082Z,2.80
2022-09-03T05:39:08.419Z,4.50
2022-09-03T05:41:36.903Z,3.27
2022-09-03T05:44:06.933Z,4.07
2022-09-03T05:46:39.116Z,2.30
2022-09-03T05:49:09.121Z,2.70
2022-09-03T05:51:40.223Z,4.43
2022-09-03T05:54:09.549Z,3.17
2022-09-03T05:56:43.384Z,3.00
2022-09-03T05:59:11.995Z,4.47
2022-09-03T06:01:46.958Z,3.50
2022-09-03T06:04:19.861Z,5.03
2022-09-03T06:06:49.053Z,2.13
2022-09-03T06:09:20.430Z,3.40
2022-09-03T06:11:52.733Z,3.03
2022-09-03T06:14:22.944Z,3.00
2022-09-03T06:16:53.552Z,3.17
2022-09-03T06:19:22.077Z,4.33
2022-09-03T06:21:50.599Z,3.07
2022-09-03T06:24:28.594Z,3.63
2022-09-03T06:26:58.193Z,6.80
2022-09-03T06:29:26.821Z,4.20
2022-09-03T06:31:55.870Z,3.10
2022-09-03T06:34:28.236Z,5.93
2022-09-03T06:36:56.621Z,3.23
2022-09-03T06:39:26.325Z,2.70
2022-09-03T06:41:55.994Z,3.23
2022-09-03T06:44:24.383Z,3.50
2022-09-03T06:46:54.298Z,2.67
2022-09-03T06:49:23.004Z,2.43
2022-09-03T06:51:51.384Z,4.87
2022-09-03T06:54:19.793Z,2.50
2022-09-03T06:56:48.249Z,2.40
2022-09-03T06:59:16.909Z,2.63
2022-09-03T07:01:46.796Z,4.20
2022-09-03T07:04:20.668Z,2.50
2022-09-03T07:06:49.885Z,4.07
2022-09-03T07:09:19.797Z,5.87
2022-09-03T07:11:48.996Z,2.67
2022-09-03T07:14:19.646Z,5.50
2022-09-03T07:16:50.131Z,2.83
2022-09-03T07:19:19.279Z,3.63
2022-09-03T07:21:50.558Z,4.17
2022-09-03T07:24:20.707Z,3.50
2022-09-03T07:26:49.895Z,3.57
2022-09-03T07:29:21.313Z,4.00
2022-09-03T07:31:54.175Z,4.97
2022-09-03T07:34:27.482Z,3.03
2022-09-03T07:36:56.076Z,2.97
2022-09-03T07:39:24.528Z,4.57
2022-09-03T07:41:52.970Z,2.77
2022-09-03T07:44:21.467Z,3.47
2022-09-03T07:46:51.937Z,3.27
2022-09-03T07:49:22.276Z,2.93
2022-09-03T07:51:53.151Z,3.57
2022-09-03T07:54:22.917Z,2.90
2022-09-03T07:56:51.370Z,5.13
2022-09-03T07:59:21.223Z,2.53
2022-09-03T08:01:49.648Z,3.50
2022-09-03T08:04:18.103Z,3.03
2022-09-03T08:06:46.442Z,3.20
2022-09-03T08:09:14.822Z,4.27
2022-09-03T08:11:44.732Z,2.67
2022-09-03T08:14:15.224Z,4.57
2022-09-03T08:16:49.630Z,3.50
2022-09-03T08:19:20.997Z,3.47
2022-09-03T08:21:49.482Z,5.30
2022-09-03T08:24:21.904Z,3.10
2022-09-03T08:26:52.346Z,4.13
2022-09-03T08:29:22.591Z,4.87
2022-09-03T08:31:51.167Z,4.73
2022-09-03T08:34:20.630Z,5.90
2022-09-03T08:36:49.611Z,4.97
2022-09-03T08:39:18.150Z,3.13
2022-09-03T08:41:52.757Z,3.10
2022-09-03T08:44:24.153Z,2.60
2022-09-03T08:47:23.389Z,3.70
2022-09-03T08:50:03.284Z,4.73
2022-09-03T08:52:43.644Z,4.03
2022-09-03T08:55:18.122Z,2.80
2022-09-03T08:58:05.237Z,2.67
2022-09-03T09:00:52.103Z,3.93
2022-09-03T09:03:36.004Z,3.40
2022-09-03T09:06:19.618Z,3.10
2022-09-03T09:09:04.947Z,2.87
2022-09-03T09:12:00.117Z,6.20
2022-09-03T09:14:41.343Z,2.77
2022-09-03T09:17:37.103Z,5.20
2022-09-03T09:20:26.111Z,3.47
2022-09-03T09:23:04.229Z,2.60
2022-09-03T09:25:33.604Z,2.50
2022-09-03T09:28:14.689Z,3.13
2022-09-03T09:30:45.208Z,3.67
2022-09-03T09:33:13.573Z,2.70
2022-09-03T09:35:43.884Z,2.90
2022-09-03T09:38:13.459Z,3.47
2022-09-03T09:40:46.416Z,3.57
2022-09-03T09:43:22.124Z,2.90
2022-09-03T09:45:52.622Z,2.90
2022-09-03T09:48:35.385Z,3.03
2022-09-03T09:51:14.912Z,2.20
2022-09-03T09:53:43.394Z,3.60
2022-09-03T09:56:25.630Z,3.00
2022-09-03T09:59:11.764Z,2.90
2022-09-03T10:01:48.482Z,2.70
2022-09-03T10:04:32.862Z,2.53
2022-09-03T10:07:27.613Z,3.17
2022-09-03T10:10:13.902Z,5.80
2022-09-03T10:13:03.789Z,3.10
2022-09-03T10:16:01.285Z,3.00
2022-09-03T10:18:40.695Z,2.70
2022-09-03T10:21:18.502Z,3.47
2022-09-03T10:24:16.378Z,2.97
2022-09-03T10:26:48.410Z,2.60
2022-09-03T10:29:22.163Z,2.70
2022-09-03T10:32:05.929Z,2.50
2022-09-03T10:34:47.549Z,2.40
2022-09-03T10:37:38.472Z,2.63
2022-09-03T10:40:20.462Z,6.77
2022-09-03T10:43:07.544Z,5.37
2022-09-03T10:45:38.852Z,5.40
2022-09-03T10:48:16.260Z,6.83
2022-09-03T10:51:07.540Z,5.13
2022-09-03T10:54:07.857Z,4.43
2022-09-03T10:56:42.367Z,4.47
2022-09-03T10:59:27.226Z,3.27
2022-09-03T11:02:16.727Z,2.67
2022-09-03T11:05:08.890Z,4.10
2022-09-03T11:07:42.679Z,3.20
2022-09-03T11:10:31.285Z,1.80
2022-09-03T11:13:09.882Z,3.00
2022-09-03T11:15:47.609Z,2.30
2022-09-03T11:18:44.511Z,2.57
2022-09-03T11:21:15.860Z,2.43
2022-09-03T11:23:55.201Z,1.90
2022-09-03T11:26:27.192Z,2.50
2022-09-03T11:29:16.887Z,1.87
2022-09-03T11:31:58.595Z,2.37
2022-09-03T11:34:32.016Z,4.23
2022-09-03T11:37:22.002Z,4.40
2022-09-03T11:39:57.933Z,2.70
2022-09-03T11:42:39.918Z,2.97
2022-09-03T11:45:35.512Z,2.90
2022-09-03T11:48:17.567Z,2.97
2022-09-03T11:50:55.384Z,2.47
2022-09-03T11:53:35.464Z,2.20
2022-09-03T11:56:20.328Z,3.60
2022-09-03T11:59:00.244Z,3.10
2022-09-03T12:01:29.671Z,2.70
2022-09-03T12:04:04.242Z,2.23
2022-09-03T12:06:50.668Z,2.10
2022-09-03T12:09:40.690Z,1.83
2022-09-03T12:12:49.698Z,2.13
2022-09-03T12:15:24.447Z,1.90
2022-09-03T12:18:18.160Z,2.30
2022-09-03T12:21:02.370Z,2.43
2022-09-03T12:23:51.932Z,1.77
2022-09-03T12:26:28.243Z,2.30
2022-09-03T12:28:59.053Z,1.83
2022-09-03T12:31:31.684Z,2.30
2022-09-03T12:34:02.996Z,2.00
2022-09-03T12:36:49.128Z,1.90
2022-09-03T12:42:23.830Z,1.90
2022-09-03T12:44:52.207Z,2.87
2022-09-03T12:47:38.566Z,2.90
2022-09-03T12:50:20.515Z,1.83
2022-09-03T12:52:54.084Z,3.90
2022-09-03T12:55:29.792Z,2.00
2022-09-03T12:58:04.950Z,2.37
2022-09-03T13:00:37.449Z,2.60
2022-09-03T13:03:16.994Z,1.67
2022-09-03T13:05:53.994Z,1.57
2022-09-03T13:08:34.754Z,2.53
2022-09-03T13:11:06.164Z,3.30
2022-09-03T13:13:37.861Z,2.53
2022-09-03T13:16:12.300Z,4.30
2022-09-03T13:18:46.960Z,2.00
2022-09-03T13:21:48.441Z,2.73
2022-09-03T13:25:01.518Z,4.77
2022-09-03T13:27:55.939Z,3.70
2022-09-03T13:30:32.653Z,8.30
2022-09-03T13:33:17.149Z,4.27
2022-09-03T13:35:50.706Z,2.40
2022-09-03T13:38:40.576Z,1.90
2022-09-03T13:41:26.315Z,2.17
2022-09-03T13:44:19.436Z,1.90
2022-09-03T13:47:04.298Z,3.40
2022-09-03T13:49:57.618Z,5.43
2022-09-03T13:53:04.807Z,2.87
2022-09-03T13:55:34.371Z,2.40
2022-09-03T13:58:25.199Z,2.43
2022-09-03T14:01:07.444Z,2.07
2022-09-03T14:03:49.699Z,2.30
2022-09-03T14:06:39.704Z,1.93
2022-09-03T14:09:13.833Z,4.80
2022-09-03T14:12:04.632Z,3.43
2022-09-03T14:14:41.849Z,3.93
2022-09-03T14:17:38.311Z,2.90
2022-09-03T14:20:30.415Z,3.50
2022-09-03T14:23:04.903Z,3.33
2022-09-03T14:25:33.778Z,3.90
2022-09-03T14:28:20.888Z,2.90
2022-09-03T14:31:04.281Z,4.83
2022-09-03T14:33:54.052Z,4.33
2022-09-03T14:36:25.385Z,4.57
2022-09-03T14:39:09.151Z,4.63
2022-09-03T14:42:08.128Z,3.47
2022-09-03T14:44:44.295Z,3.87
2022-09-03T14:47:45.604Z,4.47
2022-09-03T14:50:41.957Z,5.50
2022-09-03T14:53:28.593Z,4.10
2022-09-03T14:56:26.260Z,3.77
2022-09-03T14:59:26.475Z,4.00
2022-09-03T15:02:22.425Z,7.60
2022-09-03T15:05:01.244Z,4.50
2022-09-03T15:07:50.791Z,2.57
2022-09-03T15:10:25.421Z,3.57
2022-09-03T15:13:00.792Z,2.30
2022-09-03T15:15:44.465Z,5.17
2022-09-03T15:18:19.346Z,3.10
2022-09-03T15:20:59.059Z,2.63
2022-09-03T15:23:58.301Z,3.20
2022-09-03T15:26:44.062Z,2.50
2022-09-03T15:29:21.537Z,4.80
2022-09-03T15:32:24.016Z,2.87
2022-09-03T15:35:09.651Z,2.47
2022-09-03T15:37:49.219Z,2.60
2022-09-03T15:40:38.143Z,3.67
2022-09-03T15:43:22.162Z,2.50
2022-09-03T15:45:59.208Z,4.07
2022-09-03T15:48:31.354Z,3.53
2022-09-03T15:51:15.217Z,3.00
2022-09-03T15:53:47.885Z,6.30
2022-09-03T15:56:59.875Z,2.77
2022-09-03T15:59:33.848Z,3.53
2022-09-03T16:02:40.927Z,2.63
2022-09-03T16:05:25.500Z,2.70
2022-09-03T16:08:35.105Z,5.73
2022-09-03T16:11:11.289Z,2.33
2022-09-03T16:14:00.350Z,4.07
2022-09-03T16:16:40.590Z,3.40
2022-09-03T16:19:33.543Z,4.23
2022-09-03T16:22:08.546Z,3.10
2022-09-03T16:24:55.240Z,3.70
2022-09-03T16:27:35.964Z,4.63
2022-09-03T16:30:04.463Z,4.40
2022-09-03T16:32:51.716Z,4.43
2022-09-03T16:35:56.751Z,3.10
2022-09-03T16:39:02.172Z,2.80
2022-09-03T16:41:56.012Z,3.30
2022-09-03T16:45:08.895Z,3.10
2022-09-03T16:48:04.464Z,5.10
2022-09-03T16:50:52.875Z,3.53
2022-09-03T16:53:30.408Z,4.60
2022-09-03T16:56:39.645Z,5.30
2022-09-03T16:59:48.867Z,4.90
2022-09-03T17:02:49.233Z,3.90
2022-09-03T17:05:42.426Z,2.77
2022-09-03T17:08:22.833Z,2.20
2022-09-03T17:11:14.560Z,3.17
2022-09-03T17:13:51.163Z,3.83
2022-09-03T17:16:55.368Z,3.97
2022-09-03T17:19:52.384Z,3.10
2022-09-03T17:22:20.852Z,2.77
2022-09-03T17:25:06.667Z,3.00
2022-09-03T17:27:51.870Z,2.20
2022-09-03T17:30:41.464Z,3.00
2022-09-03T17:33:38.588Z,3.03
2022-09-03T17:36:14.904Z,2.17
2022-09-03T17:38:49.458Z,2.77
2022-09-03T17:41:36.324Z,5.17
2022-09-03T17:44:27.616Z,3.03
2022-09-03T17:47:13.253Z,3.77
2022-09-03T17:49:51.485Z,2.70
2022-09-03T17:52:36.256Z,1.97
2022-09-03T17:55:31.771Z,3.53
2022-09-03T17:58:20.190Z,3.53
2022-09-03T18:01:16.643Z,3.53
2022-09-03T18:03:51.096Z,2.53
2022-09-03T18:06:33.968Z,4.60
2022-09-03T18:09:17.263Z,5.20
2022-09-03T18:12:08.683Z,2.40
2022-09-03T18:14:59.407Z,3.20
2022-09-03T18:17:50.579Z,2.20
2022-09-03T18:20:37.400Z,3.00
2022-09-03T18:23:30.054Z,2.47
2022-09-03T18:26:34.137Z,2.20
2022-09-03T18:29:32.158Z,3.90
2022-09-03T18:32:20.806Z,2.77
2022-09-03T18:35:07.749Z,2.83
2022-09-03T18:37:55.927Z,3.17
2022-09-03T18:40:48.327Z,2.33
2022-09-03T18:44:04.312Z,10.60
2022-09-03T18:48:01.892Z,2.90
2022-09-03T18:50:26.659Z,3.43
2022-09-03T18:53:31.892Z,8.73
2022-09-03T18:56:55.645Z,4.67
2022-09-03T19:00:20.024Z,2.80
2022-09-03T19:03:31.420Z,3.70
2022-09-03T19:06:24.808Z,2.50
2022-09-03T19:09:54.672Z,3.03
2022-09-03T19:12:59.421Z,3.37
2022-09-03T19:15:58.346Z,2.43
2022-09-03T19:18:54.223Z,2.67
2022-09-03T19:22:02.912Z,2.17
2022-09-03T19:24:50.622Z,2.07
2022-09-03T19:27:59.672Z,3.17
2022-09-03T19:31:17.036Z,2.77
2022-09-03T19:34:39.314Z,3.63
2022-09-03T19:37:46.336Z,2.50
2022-09-03T19:41:13.853Z,2.77
2022-09-03T19:44:09.462Z,3.80
2022-09-03T19:47:09.972Z,2.50
2022-09-03T19:50:24.072Z,3.37
2022-09-03T19:53:21.138Z,3.90
2022-09-03T19:56:21.023Z,12.83
2022-09-03T19:59:25.696Z,3.13
2022-09-03T20:02:12.742Z,3.33
2022-09-03T20:05:17.806Z,3.50
2022-09-03T20:08:11.873Z,3.37
2022-09-03T20:10:41.672Z,2.47
2022-09-03T20:13:20.785Z,2.73
2022-09-03T20:15:52.049Z,3.43
2022-09-03T20:18:29.858Z,6.97
2022-09-03T20:21:26.885Z,3.57
2022-09-03T20:24:14.180Z,4.20
2022-09-03T20:26:54.912Z,3.37
2022-09-03T20:29:37.324Z,5.23
2022-09-03T20:32:14.857Z,4.37
2022-09-03T20:35:08.928Z,2.83
2022-09-03T20:37:46.193Z,5.57
2022-09-03T20:40:39.054Z,4.07
2022-09-03T20:43:30.245Z,2.60
2022-09-03T20:46:17.213Z,2.30
2022-09-03T20:49:41.877Z,3.17
2022-09-03T20:52:23.471Z,2.70
2022-09-03T20:55:40.694Z,2.27
2022-09-03T20:58:19.382Z,2.10
2022-09-03T21:01:07.979Z,2.73
2022-09-03T21:04:04.357Z,3.20
2022-09-03T21:06:57.532Z,2.67
2022-09-03T21:09:42.557Z,2.57
2022-09-03T21:12:48.203Z,3.20
2022-09-03T21:15:38.412Z,3.67
2022-09-03T21:18:35.994Z,3.27
2022-09-03T21:21:18.698Z,2.50
2022-09-03T21:23:51.891Z,2.77
2022-09-03T21:26:21.446Z,3.70
2022-09-03T21:29:28.325Z,4.50
2022-09-03T21:31:59.908Z,2.90
2022-09-03T21:34:35.838Z,3.63
2022-09-03T21:37:06.947Z,2.97
2022-09-03T21:39:52.900Z,4.20
2022-09-03T21:42:32.207Z,2.33
2022-09-03T21:45:15.335Z,2.73
2022-09-03T21:47:50.678Z,2.77
2022-09-03T21:50:22.185Z,2.30
2022-09-03T21:52:58.120Z,28.60
2022-09-03T21:55:55.900Z,5.13
2022-09-03T21:59:17.151Z,4.00
2022-09-03T22:02:18.188Z,3.10
2022-09-03T22:04:46.858Z,3.93
2022-09-03T22:07:53.376Z,3.00
2022-09-03T22:10:42.509Z,3.80
2022-09-03T22:13:32.556Z,5.70
2022-09-03T22:16:41.267Z,4.27
2022-09-03T22:19:09.818Z,2.73
2022-09-03T22:22:00.300Z,3.03
2022-09-03T22:24:49.076Z,2.93
2022-09-03T22:27:20.552Z,5.53
2022-09-03T22:30:12.840Z,2.90
2022-09-03T22:33:02.995Z,3.60
2022-09-03T22:36:10.043Z,2.87
2022-09-03T22:39:13.770Z,2.60
2022-09-03T22:41:54.215Z,2.30
2022-09-03T22:44:34.912Z,3.80
2022-09-03T22:47:22.679Z,3.70
2022-09-03T22:49:55.800Z,4.13
2022-09-03T22:52:38.943Z,2.90
2022-09-03T22:55:10.789Z,5.00
2022-09-03T22:57:52.576Z,5.27
2022-09-03T23:00:21.978Z,4.73
2022-09-03T23:02:58.623Z,5.63
2022-09-03T23:05:52.475Z,6.93
2022-09-03T23:08:36.052Z,3.70
2022-09-03T23:11:26.976Z,7.93
2022-09-03T23:14:09.015Z,3.00
2022-09-03T23:16:51.955Z,2.63
2022-09-03T23:19:47.415Z,6.33
2022-09-03T23:22:45.656Z,2.30
2022-09-03T23:25:38.295Z,3.43
2022-09-03T23:28:25.243Z,3.53
2022-09-03T23:30:54.572Z,3.20
2022-09-03T23:33:23.578Z,2.70
2022-09-03T23:36:09.292Z,6.40
2022-09-03T23:39:15.624Z,4.53
2022-09-03T23:42:11.122Z,4.23
2022-09-03T23:44:55.552Z,3.67
2022-09-03T23:47:50.054Z,3.63
2022-09-03T23:50:40.772Z,6.90
2022-09-03T23:53:30.832Z,3.20
2022-09-03T23:56:21.837Z,3.43
2022-09-03T23:59:17.283Z,2.93
